Time;durP1;ratioP1;P1;durP2;ratioP2;P2;SDS_P1;SDS_P2;PMS_P1;PMS_P2;Temp;Humidity;BMP_temperature;BMP_pressure;BME280_temperature;BME280_humidity;BME280_pressure;Samples;Min_cycle;Max_cycle;Signal;HPM_P1;HPM_P2
2023/12/20 00:00:16;;;;;;;2.30;2.10;;;21.50;52.80;;;;;;4928639;29;20446;-85
2023/12/20 00:02:46;;;;;;;2.07;1.97;;;21.50;52.80;;;;;;4931046;29;20464;-85
2023/12/20 00:05:15;;;;;;;2.17;2.07;;;21.50;52.80;;;;;;4925512;29;20455;-85
2023/12/20 00:07:43;;;;;;;2.10;2.00;;;21.50;52.80;;;;;;4916295;29;20473;-85
2023/12/20 00:10:13;;;;;;;2.03;1.93;;;21.50;52.60;;;;;;4924494;29;20445;-85
2023/12/20 00:12:42;;;;;;;2.30;2.10;;;21.50;52.60;;;;;;4934976;29;20475;-84
2023/12/20 00:15:11;;;;;;;2.13;2.03;;;21.40;52.70;;;;;;4920790;29;20541;-85
2023/12/20 00:17:40;;;;;;;3.47;2.37;;;21.40;52.50;;;;;;4938720;29;20898;-85
2023/12/20 00:20:10;;;;;;;2.70;2.50;;;21.40;52.70;;;;;;4929688;29;20875;-85
2023/12/20 00:22:38;;;;;;;2.23;2.03;;;21.40;52.50;;;;;;4934989;29;20457;-85
2023/12/20 00:25:07;;;;;;;1.97;1.87;;;21.40;52.80;;;;;;4926814;29;20445;-85
2023/12/20 00:27:35;;;;;;;2.30;2.10;;;21.40;52.80;;;;;;4936089;29;20466;-87
2023/12/20 00:30:05;;;;;;;1.97;1.87;;;21.40;52.80;;;;;;4928694;29;20457;-85
2023/12/20 00:32:34;;;;;;;2.50;2.30;;;21.40;52.70;;;;;;4929379;29;20458;-85
2023/12/20 00:35:02;;;;;;;1.80;1.70;;;21.40;52.50;;;;;;4936345;29;20454;-85
2023/12/20 00:37:31;;;;;;;2.00;1.90;;;21.40;52.70;;;;;;4936865;29;20462;-85
2023/12/20 00:39:59;;;;;;;2.40;2.30;;;21.30;52.70;;;;;;4928816;29;20954;-85
2023/12/20 00:42:27;;;;;;;2.13;1.90;;;21.30;52.80;;;;;;4928698;29;20832;-86
2023/12/20 00:44:55;;;;;;;2.27;2.07;;;21.30;52.60;;;;;;4932375;29;20542;-85
2023/12/20 00:47:25;;;;;;;1.77;1.67;;;21.30;52.80;;;;;;4933356;29;20512;-85
2023/12/20 00:49:53;;;;;;;1.90;1.80;;;21.30;52.80;;;;;;4936678;29;20457;-85
2023/12/20 00:52:22;;;;;;;1.80;1.70;;;21.30;52.70;;;;;;4925723;29;20535;-85
2023/12/20 00:54:50;;;;;;;1.70;1.60;;;21.30;52.70;;;;;;4934149;29;20480;-85
2023/12/20 00:57:19;;;;;;;2.07;1.87;;;21.30;52.80;;;;;;4927638;29;20484;-85
2023/12/20 00:59:47;;;;;;;1.67;1.57;;;21.30;52.80;;;;;;4933664;29;20454;-88
2023/12/20 01:02:15;;;;;;;2.43;2.23;;;21.30;52.80;;;;;;4928963;29;20457;-85
2023/12/20 01:04:45;;;;;;;2.50;2.10;;;21.30;52.80;;;;;;4921233;29;20459;-85
2023/12/20 01:07:13;;;;;;;2.17;2.07;;;21.30;52.60;;;;;;4923159;29;21058;-85
2023/12/20 01:09:42;;;;;;;2.30;2.10;;;21.20;52.80;;;;;;4917795;29;20463;-85
2023/12/20 01:12:10;;;;;;;1.83;1.73;;;21.20;52.80;;;;;;4926286;29;20560;-85
2023/12/20 01:14:39;;;;;;;2.30;2.10;;;21.20;52.50;;;;;;4925200;29;20471;-85
2023/12/20 01:17:07;;;;;;;1.80;1.70;;;21.20;52.90;;;;;;4920366;29;20479;-86
2023/12/20 01:19:36;;;;;;;1.50;1.40;;;21.20;52.90;;;;;;4913703;29;20488;-86
2023/12/20 01:22:06;;;;;;;2.50;2.20;;;21.20;52.90;;;;;;4906435;29;20472;-86
2023/12/20 01:24:35;;;;;;;2.30;2.10;;;21.20;52.60;;;;;;4916507;29;20454;-85
2023/12/20 01:27:03;;;;;;;2.20;2.10;;;21.20;52.90;;;;;;4915254;29;20571;-85
2023/12/20 01:29:31;;;;;;;2.33;2.20;;;21.20;52.80;;;;;;4901809;29;20443;-85
2023/12/20 01:32:00;;;;;;;2.00;1.90;;;21.20;52.90;;;;;;4924257;29;20519;-85
2023/12/20 01:34:28;;;;;;;1.90;1.80;;;21.20;52.80;;;;;;4906424;29;20464;-87
2023/12/20 01:36:56;;;;;;;1.67;1.57;;;21.20;52.80;;;;;;4915883;29;20483;-85
2023/12/20 01:39:26;;;;;;;1.73;1.63;;;21.20;52.80;;;;;;4910454;29;20472;-87
2023/12/20 01:41:57;;;;;;;2.17;2.03;;;21.20;52.90;;;;;;4918560;29;20465;-85
2023/12/20 01:44:25;;;;;;;2.30;2.10;;;21.10;52.90;;;;;;4916917;29;20448;-86
2023/12/20 01:46:53;;;;;;;1.90;1.80;;;21.10;52.60;;;;;;4911082;29;20541;-85
2023/12/20 01:49:22;;;;;;;1.50;1.37;;;21.10;52.60;;;;;;4904535;29;20459;-89
2023/12/20 01:51:51;;;;;;;1.60;1.50;;;21.10;52.90;;;;;;4916429;29;20554;-85
2023/12/20 01:54:21;;;;;;;2.40;1.93;;;21.10;52.60;;;;;;4907603;29;20816;-85
2023/12/20 01:56:52;;;;;;;1.70;1.60;;;21.10;52.60;;;;;;4913836;29;20479;-85
2023/12/20 01:59:21;;;;;;;1.50;1.40;;;21.10;52.80;;;;;;4908867;29;20454;-87
2023/12/20 02:01:50;;;;;;;1.40;1.40;;;21.10;52.60;;;;;;4891731;29;20464;-85
2023/12/20 02:04:19;;;;;;;2.30;2.10;;;21.10;52.90;;;;;;4902793;29;21009;-86
2023/12/20 02:06:48;;;;;;;1.70;1.60;;;21.00;52.70;;;;;;4896399;29;20963;-88
2023/12/20 02:09:16;;;;;;;1.63;1.53;;;21.00;52.80;;;;;;4905070;29;20938;-86
2023/12/20 02:11:45;;;;;;;1.47;1.37;;;21.00;52.90;;;;;;4905498;29;20847;-85
2023/12/20 02:14:14;;;;;;;1.90;1.80;;;21.00;52.90;;;;;;4904379;29;20469;-86
2023/12/20 02:16:42;;;;;;;1.90;1.80;;;21.00;52.90;;;;;;4911854;29;20474;-85
2023/12/20 02:19:15;;;;;;;1.77;1.67;;;21.00;52.80;;;;;;4928816;29;20487;-85
2023/12/20 02:21:45;;;;;;;1.97;1.50;;;21.00;52.90;;;;;;4926456;29;20461;-85
2023/12/20 02:24:13;;;;;;;1.80;1.70;;;21.00;52.90;;;;;;4936208;29;20552;-85
2023/12/20 02:26:42;;;;;;;1.80;1.70;;;21.00;52.70;;;;;;4944716;29;20507;-85
2023/12/20 02:29:14;;;;;;;1.50;1.40;;;21.00;52.80;;;;;;4921755;29;20991;-85
2023/12/20 02:31:42;;;;;;;1.70;1.60;;;21.00;52.90;;;;;;4931595;29;20826;-85
2023/12/20 02:34:11;;;;;;;1.40;1.40;;;21.00;52.80;;;;;;4925992;29;20461;-85
2023/12/20 02:36:39;;;;;;;1.50;1.40;;;21.00;52.90;;;;;;4929722;29;20517;-85
2023/12/20 02:39:09;;;;;;;1.80;1.70;;;21.00;52.90;;;;;;4924626;29;20875;-85
2023/12/20 02:41:37;;;;;;;1.90;1.80;;;21.00;52.90;;;;;;4929685;29;20468;-88
2023/12/20 02:44:05;;;;;;;2.10;1.50;;;21.00;52.90;;;;;;4924877;29;20450;-85
2023/12/20 02:46:34;;;;;;;1.60;1.50;;;20.90;52.90;;;;;;4920642;29;20546;-85
2023/12/20 02:49:02;;;;;;;1.30;1.23;;;21.00;52.90;;;;;;4926737;29;20470;-85
2023/12/20 02:51:30;;;;;;;1.60;1.50;;;20.90;52.90;;;;;;4925175;29;20471;-87
2023/12/20 02:53:59;;;;;;;1.63;1.53;;;20.90;52.90;;;;;;4937615;29;20461;-86
2023/12/20 02:56:28;;;;;;;1.97;1.87;;;20.90;52.80;;;;;;4927141;29;20466;-87
2023/12/20 02:58:57;;;;;;;1.50;1.40;;;20.90;52.90;;;;;;4928159;29;20484;-85
2023/12/20 03:01:25;;;;;;;1.80;1.70;;;20.90;52.90;;;;;;4927960;29;20461;-85
2023/12/20 03:03:53;;;;;;;1.10;1.10;;;20.90;52.90;;;;;;4924841;29;20466;-85
2023/12/20 03:06:22;;;;;;;1.67;1.57;;;20.90;52.90;;;;;;4934684;29;20464;-86
2023/12/20 03:08:50;;;;;;;2.07;1.90;;;20.90;52.90;;;;;;4934612;29;20509;-86
2023/12/20 03:11:18;;;;;;;1.40;1.30;;;20.90;53.00;;;;;;4940715;29;20483;-86
2023/12/20 03:13:48;;;;;;;2.00;1.90;;;20.90;52.90;;;;;;4929236;29;20462;-85
2023/12/20 03:16:16;;;;;;;1.70;1.60;;;20.90;53.00;;;;;;4921878;29;20445;-86
2023/12/20 03:18:45;;;;;;;1.83;1.73;;;20.90;52.90;;;;;;4929687;29;21008;-88
2023/12/20 03:21:13;;;;;;;1.57;1.47;;;20.90;53.00;;;;;;4927135;29;20950;-85
2023/12/20 03:23:41;;;;;;;1.63;1.53;;;20.90;53.00;;;;;;4933848;29;20462;-85
2023/12/20 03:26:10;;;;;;;1.53;1.33;;;20.90;52.90;;;;;;4935104;29;20457;-86
2023/12/20 03:28:38;;;;;;;1.40;1.30;;;20.80;53.00;;;;;;4927051;29;20933;-85
2023/12/20 03:31:08;;;;;;;1.50;1.40;;;20.80;52.90;;;;;;4924240;29;20450;-86
2023/12/20 03:33:36;;;;;;;1.50;1.27;;;20.80;53.00;;;;;;4902085;29;21062;-85
2023/12/20 03:36:05;;;;;;;1.70;1.60;;;20.80;53.00;;;;;;4940788;29;20457;-87
2023/12/20 03:38:33;;;;;;;1.50;1.40;;;20.80;53.00;;;;;;4918538;29;20518;-85
2023/12/20 03:41:01;;;;;;;1.60;1.50;;;20.80;53.00;;;;;;4930582;29;20461;-85
2023/12/20 03:43:30;;;;;;;1.77;1.67;;;20.80;53.00;;;;;;4924621;29;20945;-85
2023/12/20 03:45:58;;;;;;;1.53;1.43;;;20.80;53.00;;;;;;4929030;29;20483;-85
2023/12/20 03:48:28;;;;;;;1.17;1.10;;;20.80;53.00;;;;;;4922612;29;20449;-85
2023/12/20 03:50:57;;;;;;;1.70;1.60;;;20.80;53.00;;;;;;4933302;29;20486;-85
2023/12/20 03:53:25;;;;;;;1.50;1.40;;;20.70;53.00;;;;;;4935706;29;20448;-85
2023/12/20 03:55:54;;;;;;;1.70;1.60;;;20.70;53.00;;;;;;4930276;29;20444;-85
2023/12/20 03:58:22;;;;;;;1.50;1.40;;;20.70;53.20;;;;;;4932696;29;20528;-85
2023/12/20 04:00:50;;;;;;;1.50;1.40;;;20.70;53.20;;;;;;4935109;29;20545;-85
2023/12/20 04:03:18;;;;;;;1.53;1.43;;;20.70;53.20;;;;;;4931020;29;20473;-86
2023/12/20 04:05:48;;;;;;;1.13;1.13;;;20.70;53.20;;;;;;4937467;29;20461;-85
2023/12/20 04:08:16;;;;;;;1.10;1.10;;;20.60;53.20;;;;;;4935130;29;20839;-85
2023/12/20 04:10:44;;;;;;;1.40;1.30;;;20.60;53.30;;;;;;4939571;29;20532;-85
2023/12/20 04:13:13;;;;;;;1.87;1.77;;;20.60;53.30;;;;;;4922154;29;20716;-85
2023/12/20 04:15:41;;;;;;;1.57;1.30;;;20.60;53.30;;;;;;4935777;29;20545;-86
2023/12/20 04:18:10;;;;;;;1.83;1.73;;;20.60;53.30;;;;;;4937166;29;20507;-86
2023/12/20 04:20:38;;;;;;;1.37;1.27;;;20.60;53.30;;;;;;4933735;29;20466;-85
2023/12/20 04:23:07;;;;;;;1.20;1.20;;;20.60;53.30;;;;;;4935983;29;20461;-85
2023/12/20 04:25:36;;;;;;;1.20;1.20;;;20.60;53.30;;;;;;4932031;29;20465;-86
2023/12/20 04:28:05;;;;;;;0.90;0.90;;;20.60;53.30;;;;;;4935678;29;20467;-89
2023/12/20 04:30:33;;;;;;;1.50;1.40;;;20.60;53.30;;;;;;4935364;29;20568;-86
2023/12/20 04:33:02;;;;;;;1.30;1.20;;;20.60;53.30;;;;;;4936243;29;20504;-86
2023/12/20 04:35:30;;;;;;;1.40;1.30;;;20.60;53.30;;;;;;4922986;29;20466;-85
2023/12/20 04:37:58;;;;;;;1.53;1.43;;;20.60;53.20;;;;;;4933839;29;20477;-84
2023/12/20 04:40:28;;;;;;;0.90;0.90;;;20.60;53.30;;;;;;4940236;29;20513;-86
2023/12/20 04:42:56;;;;;;;1.50;1.40;;;20.60;53.30;;;;;;4937151;29;20453;-85
2023/12/20 04:45:24;;;;;;;1.40;1.30;;;20.60;53.30;;;;;;4937373;29;20457;-85
2023/12/20 04:47:53;;;;;;;1.13;1.03;;;20.60;53.30;;;;;;4934921;29;20548;-85
2023/12/20 04:50:22;;;;;;;1.33;1.23;;;20.60;53.30;;;;;;4936405;29;20490;-85
2023/12/20 04:52:51;;;;;;;1.90;1.80;;;20.60;53.20;;;;;;4923601;29;20855;-85
2023/12/20 04:55:19;;;;;;;1.40;1.30;;;20.60;53.20;;;;;;4923645;29;20447;-85
2023/12/20 04:57:48;;;;;;;3.70;1.40;;;20.60;53.20;;;;;;4925928;29;20549;-86
2023/12/20 05:00:17;;;;;;;1.30;1.23;;;20.60;53.10;;;;;;4931110;29;20565;-87
2023/12/20 05:02:46;;;;;;;1.47;1.37;;;20.60;53.20;;;;;;4935173;29;20454;-89
2023/12/20 05:05:15;;;;;;;1.50;1.20;;;20.60;53.20;;;;;;4932331;29;21010;-85
2023/12/20 05:07:43;;;;;;;1.33;1.23;;;20.60;53.20;;;;;;4929699;29;20456;-85
2023/12/20 05:10:12;;;;;;;1.33;1.23;;;20.70;53.20;;;;;;4935676;29;20456;-85
2023/12/20 05:12:40;;;;;;;1.20;1.20;;;20.70;53.30;;;;;;4936017;29;20465;-85
2023/12/20 05:15:10;;;;;;;1.10;1.10;;;20.70;53.20;;;;;;4927508;29;20912;-85
2023/12/20 05:17:38;;;;;;;1.30;1.20;;;20.80;53.20;;;;;;4936574;29;20492;-85
2023/12/20 05:20:08;;;;;;;1.17;1.17;;;20.80;53.20;;;;;;4930975;29;20506;-87
2023/12/20 05:22:37;;;;;;;1.30;1.20;;;20.90;53.20;;;;;;4934113;29;20463;-85
2023/12/20 05:25:06;;;;;;;1.30;1.20;;;21.00;53.10;;;;;;4930119;29;20465;-87
2023/12/20 05:27:39;;;;;;;1.77;1.67;;;21.00;53.00;;;;;;4927114;29;20551;-85
2023/12/20 05:30:10;;;;;;;1.23;1.13;;;21.10;53.00;;;;;;4934861;29;20456;-86
2023/12/20 05:32:39;;;;;;;1.33;1.17;;;21.10;52.90;;;;;;4938278;29;20453;-85
2023/12/20 05:35:07;;;;;;;1.23;1.13;;;21.20;52.90;;;;;;4934584;29;20527;-87
2023/12/20 05:37:36;;;;;;;1.20;1.00;;;21.30;52.80;;;;;;4933840;29;20467;-85
2023/12/20 05:40:05;;;;;;;1.70;1.60;;;21.40;52.80;;;;;;4935187;29;20478;-90
2023/12/20 05:42:33;;;;;;;1.40;1.30;;;21.40;52.80;;;;;;4936349;29;20474;-90
2023/12/20 05:45:02;;;;;;;1.40;1.10;;;21.50;52.70;;;;;;4939278;29;20458;-86
2023/12/20 05:47:31;;;;;;;0.80;0.80;;;21.60;52.70;;;;;;4931267;29;20468;-87
2023/12/20 05:50:00;;;;;;;1.10;1.10;;;21.60;52.60;;;;;;4930254;29;20469;-89
2023/12/20 05:52:28;;;;;;;1.30;1.27;;;21.70;52.50;;;;;;4933858;29;20501;-85
2023/12/20 05:54:57;;;;;;;1.17;1.17;;;21.80;52.40;;;;;;4931291;29;20506;-85
2023/12/20 05:57:26;;;;;;;1.10;1.07;;;21.90;52.40;;;;;;4930250;29;20472;-85
2023/12/20 05:59:54;;;;;;;1.20;1.10;;;21.90;52.20;;;;;;4930709;29;20493;-85
2023/12/20 06:02:22;;;;;;;1.27;1.20;;;22.00;52.20;;;;;;4929226;29;20463;-85
2023/12/20 06:04:52;;;;;;;1.37;1.27;;;22.10;52.10;;;;;;4930042;29;20477;-86
2023/12/20 06:07:20;;;;;;;1.10;1.10;;;22.10;52.00;;;;;;4930379;29;20455;-88
2023/12/20 06:09:49;;;;;;;1.00;1.00;;;22.10;52.00;;;;;;4936353;29;20503;-84
2023/12/20 06:12:17;;;;;;;1.60;1.50;;;22.10;52.00;;;;;;4928546;29;20459;-84
2023/12/20 06:14:46;;;;;;;1.00;1.00;;;22.20;51.90;;;;;;4932653;29;20451;-87
2023/12/20 06:17:14;;;;;;;0.83;0.83;;;22.10;51.90;;;;;;4932665;29;20483;-86
2023/12/20 06:19:44;;;;;;;0.80;0.80;;;22.10;51.90;;;;;;4932254;29;20487;-84
2023/12/20 06:22:14;;;;;;;1.07;1.03;;;22.10;51.90;;;;;;4927691;29;20514;-85
2023/12/20 06:24:43;;;;;;;1.30;1.30;;;22.00;51.90;;;;;;4934621;29;20448;-85
2023/12/20 06:27:11;;;;;;;1.43;1.33;;;22.00;52.00;;;;;;4935239;29;20899;-84
2023/12/20 06:29:40;;;;;;;1.10;1.10;;;22.00;52.00;;;;;;4932998;29;20468;-84
2023/12/20 06:32:09;;;;;;;1.00;1.00;;;21.90;52.10;;;;;;4914873;29;20476;-82
2023/12/20 06:34:40;;;;;;;1.10;1.10;;;21.80;52.10;;;;;;4922006;29;20455;-82
2023/12/20 06:37:08;;;;;;;1.10;1.00;;;21.80;52.20;;;;;;4924711;29;20459;-83
2023/12/20 06:39:38;;;;;;;0.97;0.93;;;21.80;52.20;;;;;;4918537;29;20576;-83
2023/12/20 06:42:06;;;;;;;1.53;1.17;;;21.70;52.30;;;;;;4929746;29;20983;-83
2023/12/20 06:44:35;;;;;;;1.33;1.23;;;21.70;52.30;;;;;;4917038;29;20464;-87
2023/12/20 06:47:04;;;;;;;1.00;1.00;;;21.70;52.40;;;;;;4924773;29;20463;-83
2023/12/20 06:49:32;;;;;;;0.90;0.87;;;21.70;52.50;;;;;;4922005;29;20552;-83
2023/12/20 06:52:00;;;;;;;1.10;1.10;;;21.70;52.50;;;;;;4925776;29;20468;-85
2023/12/20 06:54:29;;;;;;;0.90;0.90;;;21.70;52.50;;;;;;4929718;29;20450;-86
2023/12/20 06:56:58;;;;;;;1.20;1.10;;;21.70;52.50;;;;;;4925742;29;20479;-86
2023/12/20 06:59:27;;;;;;;1.20;1.10;;;21.70;52.50;;;;;;4926239;29;20559;-84
2023/12/20 07:01:56;;;;;;;1.83;1.00;;;21.70;52.50;;;;;;4921768;29;21131;-83
2023/12/20 07:04:25;;;;;;;1.20;1.10;;;21.70;52.50;;;;;;4926923;29;20530;-83
2023/12/20 07:06:57;;;;;;;1.43;1.33;;;21.80;52.50;;;;;;4927378;29;20505;-83
2023/12/20 07:09:28;;;;;;;1.50;1.40;;;21.80;52.50;;;;;;4929006;29;20471;-84
2023/12/20 07:11:58;;;;;;;1.10;1.10;;;21.80;52.40;;;;;;4933674;29;20995;-83
2023/12/20 07:14:27;;;;;;;1.60;1.50;;;21.90;52.30;;;;;;4932873;29;20553;-86
2023/12/20 07:16:56;;;;;;;1.27;1.10;;;21.90;52.40;;;;;;4927176;29;20447;-83
2023/12/20 07:19:24;;;;;;;1.17;1.07;;;22.00;52.50;;;;;;4925549;29;20561;-83
2023/12/20 07:21:53;;;;;;;1.03;1.03;;;22.00;52.40;;;;;;4911118;29;20471;-84
2023/12/20 07:24:22;;;;;;;1.23;1.17;;;22.00;52.30;;;;;;4924367;29;20547;-85
2023/12/20 07:26:51;;;;;;;1.27;1.17;;;22.00;52.30;;;;;;4933102;29;20867;-85
2023/12/20 07:29:21;;;;;;;0.90;0.90;;;22.00;52.30;;;;;;4934954;29;20495;-85
2023/12/20 07:31:51;;;;;;;1.57;1.20;;;22.00;52.30;;;;;;4930541;29;20468;-88
2023/12/20 07:34:20;;;;;;;1.00;1.00;;;22.00;52.30;;;;;;4927952;29;20459;-84
2023/12/20 07:36:49;;;;;;;1.57;1.47;;;22.00;52.20;;;;;;4928144;29;20461;-84
2023/12/20 07:39:18;;;;;;;1.60;1.50;;;22.00;52.20;;;;;;4935279;29;20614;-87
2023/12/20 07:41:47;;;;;;;1.20;1.10;;;22.00;52.20;;;;;;4932237;29;20467;-88
2023/12/20 07:44:15;;;;;;;1.07;0.97;;;21.90;52.30;;;;;;4931263;29;20519;-84
2023/12/20 07:46:49;;;;;;;1.10;1.10;;;21.90;52.40;;;;;;4929925;29;20462;-85
2023/12/20 07:49:18;;;;;;;1.40;1.30;;;21.80;52.30;;;;;;4927139;29;20499;-86
2023/12/20 07:51:46;;;;;;;1.23;1.13;;;21.80;52.30;;;;;;4935315;29;20477;-87
2023/12/20 07:54:15;;;;;;;1.67;1.57;;;21.80;52.50;;;;;;4929770;29;21018;-84
2023/12/20 07:56:53;;;;;;;1.17;0.83;;;21.70;52.50;;;;;;4917270;29;20474;-91
2023/12/20 07:59:22;;;;;;;1.53;1.43;;;21.70;52.60;;;;;;4912625;29;20481;-84
2023/12/20 08:02:01;;;;;;;1.40;1.30;;;21.70;52.60;;;;;;4931085;29;20454;-83
2023/12/20 08:04:30;;;;;;;1.23;1.13;;;21.70;52.70;;;;;;4930217;29;20453;-86
2023/12/20 08:07:00;;;;;;;1.50;1.20;;;21.70;52.70;;;;;;4938193;29;20454;-84
2023/12/20 08:09:28;;;;;;;1.40;0.80;;;21.70;52.80;;;;;;4934913;29;21350;-84
2023/12/20 08:11:59;;;;;;;3.10;1.43;;;21.70;52.70;;;;;;4927155;29;21335;-84
2023/12/20 08:14:27;;;;;;;1.40;1.30;;;21.70;52.70;;;;;;4933023;29;20949;-84
2023/12/20 08:16:56;;;;;;;1.30;1.20;;;21.70;52.70;;;;;;4938941;29;20470;-84
2023/12/20 08:19:25;;;;;;;1.50;1.40;;;21.70;52.70;;;;;;4929884;29;20491;-84
2023/12/20 08:21:54;;;;;;;1.00;0.83;;;21.80;52.60;;;;;;4920411;29;20471;-84
2023/12/20 08:24:22;;;;;;;0.90;0.90;;;21.80;52.70;;;;;;4934778;29;20958;-85
2023/12/20 08:26:51;;;;;;;1.27;1.23;;;21.80;52.70;;;;;;4934692;29;20454;-84
2023/12/20 08:29:19;;;;;;;1.20;1.10;;;21.90;52.60;;;;;;4932106;29;20471;-84
2023/12/20 08:31:47;;;;;;;1.20;1.10;;;22.00;52.60;;;;;;4916191;29;21024;-91
2023/12/20 08:34:16;;;;;;;0.80;0.80;;;22.00;52.60;;;;;;4933605;29;20977;-86
2023/12/20 08:36:49;;;;;;;1.57;1.47;;;22.00;52.50;;;;;;4917841;29;20527;-83
2023/12/20 08:39:18;;;;;;;2.17;1.97;;;22.10;52.60;;;;;;4926510;29;20464;-86
2023/12/20 08:41:46;;;;;;;1.47;1.37;;;22.10;52.90;;;;;;4924044;29;20966;-88
2023/12/20 08:44:15;;;;;;;2.33;1.80;;;22.10;53.00;;;;;;4911030;29;20656;-83
2023/12/20 08:46:44;;;;;;;2.50;1.70;;;22.10;53.00;;;;;;4930914;29;20456;-84
2023/12/20 08:49:12;;;;;;;3.70;1.97;;;22.10;53.00;;;;;;4930220;29;21146;-84
2023/12/20 08:51:41;;;;;;;1.93;1.73;;;22.10;53.00;;;;;;4909521;29;20498;-84
2023/12/20 08:54:13;;;;;;;5.30;1.80;;;22.10;52.90;;;;;;4935492;29;20491;-83
2023/12/20 08:56:41;;;;;;;3.83;2.30;;;22.00;52.90;;;;;;4919350;29;20449;-84
2023/12/20 08:59:10;;;;;;;2.73;2.17;;;22.00;52.90;;;;;;4927472;29;20475;-85
2023/12/20 09:01:39;;;;;;;3.13;1.93;;;22.00;52.90;;;;;;4925263;29;20484;-83
2023/12/20 09:04:07;;;;;;;2.60;2.40;;;21.90;52.80;;;;;;4931205;29;20491;-84
2023/12/20 09:06:36;;;;;;;3.13;2.90;;;21.90;52.90;;;;;;4927163;29;20470;-84
2023/12/20 09:09:05;;;;;;;3.37;2.37;;;21.90;52.90;;;;;;4925895;29;20479;-84
2023/12/20 09:11:35;;;;;;;2.50;1.90;;;21.80;52.90;;;;;;4927319;29;20468;-84
2023/12/20 09:14:04;;;;;;;2.10;1.83;;;21.80;52.90;;;;;;4918166;29;20526;-84
2023/12/20 09:16:32;;;;;;;3.87;2.70;;;21.80;52.90;;;;;;4921950;29;20877;-85
2023/12/20 09:19:01;;;;;;;2.20;1.60;;;21.80;53.00;;;;;;4934271;29;20518;-84
2023/12/20 09:21:30;;;;;;;1.80;1.70;;;21.80;53.00;;;;;;4929967;29;20476;-84
2023/12/20 09:23:59;;;;;;;3.23;2.03;;;21.80;53.00;;;;;;4930317;29;20536;-84
2023/12/20 09:26:27;;;;;;;3.43;2.07;;;21.80;53.00;;;;;;4933773;29;20472;-86
2023/12/20 09:28:57;;;;;;;3.07;2.47;;;21.80;53.00;;;;;;4933923;29;20510;-84
2023/12/20 09:31:26;;;;;;;2.37;1.97;;;21.90;53.00;;;;;;4931061;29;20467;-84
2023/12/20 09:33:55;;;;;;;2.57;2.37;;;21.90;53.00;;;;;;4930051;29;20460;-84
2023/12/20 09:36:24;;;;;;;2.60;2.40;;;21.90;53.00;;;;;;4928726;29;20453;-84
2023/12/20 09:38:54;;;;;;;2.33;1.97;;;22.00;52.90;;;;;;4934606;29;20451;-84
2023/12/20 09:41:24;;;;;;;3.43;2.40;;;22.00;52.90;;;;;;4929294;29;20490;-85
2023/12/20 09:43:55;;;;;;;2.57;2.10;;;22.00;52.90;;;;;;4931835;29;20468;-85
2023/12/20 09:46:31;;;;;;;3.07;1.87;;;22.00;52.80;;;;;;4927152;29;20461;-84
2023/12/20 09:49:01;;;;;;;2.20;2.00;;;22.00;52.80;;;;;;4934539;29;20549;-84
2023/12/20 09:51:31;;;;;;;2.60;2.20;;;22.10;52.80;;;;;;4917403;29;20467;-87
2023/12/20 09:54:02;;;;;;;2.00;1.80;;;22.10;52.90;;;;;;4929812;29;20473;-84
2023/12/20 09:56:31;;;;;;;2.07;1.97;;;22.10;52.70;;;;;;4924623;29;20978;-84
2023/12/20 09:59:00;;;;;;;2.03;1.87;;;22.20;52.70;;;;;;4927476;29;20533;-85
2023/12/20 10:01:31;;;;;;;2.43;2.23;;;22.20;52.60;;;;;;4926971;29;20487;-84
2023/12/20 10:04:02;;;;;;;2.20;2.00;;;22.20;52.60;;;;;;4930999;29;20519;-86
2023/12/20 10:06:35;;;;;;;2.07;1.97;;;22.30;52.50;;;;;;4935018;29;20463;-85
2023/12/20 10:09:05;;;;;;;2.20;2.00;;;22.30;52.40;;;;;;4930372;29;20452;-90
2023/12/20 10:11:37;;;;;;;1.60;1.50;;;22.40;52.50;;;;;;4935570;29;20467;-84
2023/12/20 10:14:07;;;;;;;1.97;1.87;;;22.40;52.60;;;;;;4927316;29;20987;-85
2023/12/20 10:16:37;;;;;;;2.30;2.10;;;22.50;52.50;;;;;;4924177;29;20477;-84
2023/12/20 10:19:06;;;;;;;2.03;1.80;;;22.50;52.40;;;;;;4927189;29;21004;-84
2023/12/20 10:21:35;;;;;;;3.33;1.50;;;22.50;52.20;;;;;;4933855;29;20507;-85
2023/12/20 10:24:03;;;;;;;2.60;1.90;;;22.60;52.20;;;;;;4931157;29;20448;-85
2023/12/20 10:26:32;;;;;;;2.07;1.97;;;22.70;52.30;;;;;;4916657;29;20451;-86
2023/12/20 10:29:02;;;;;;;2.20;1.70;;;22.70;52.00;;;;;;4926697;29;20524;-84
2023/12/20 10:31:32;;;;;;;4.10;1.87;;;22.80;51.90;;;;;;4930305;29;20468;-84
2023/12/20 10:34:03;;;;;;;2.53;2.00;;;22.80;52.00;;;;;;4932119;29;20456;-84
2023/12/20 10:36:33;;;;;;;2.30;2.07;;;22.80;51.70;;;;;;4931965;29;20468;-87
2023/12/20 10:39:02;;;;;;;2.40;1.60;;;22.80;51.60;;;;;;4922808;29;20456;-84
2023/12/20 10:41:33;;;;;;;1.93;1.60;;;22.70;51.60;;;;;;4930193;29;20997;-88
2023/12/20 10:44:02;;;;;;;2.07;1.93;;;22.70;51.60;;;;;;4930094;29;20467;-85
2023/12/20 10:46:31;;;;;;;1.83;1.73;;;22.60;51.70;;;;;;4929356;29;20449;-85
2023/12/20 10:49:00;;;;;;;2.40;1.80;;;22.50;51.90;;;;;;4933672;29;20487;-84
2023/12/20 10:51:31;;;;;;;1.63;1.53;;;22.50;52.00;;;;;;4929947;29;20826;-85
2023/12/20 10:54:00;;;;;;;1.50;1.40;;;22.40;52.10;;;;;;4930016;29;20547;-84
2023/12/20 10:56:33;;;;;;;1.97;1.80;;;22.40;52.10;;;;;;4927247;29;20478;-85
2023/12/20 10:59:05;;;;;;;2.20;1.57;;;22.30;52.20;;;;;;4921855;29;20989;-89
2023/12/20 11:01:34;;;;;;;3.03;2.10;;;22.30;52.20;;;;;;4927164;29;20487;-86
2023/12/20 11:04:08;;;;;;;1.53;1.43;;;22.30;52.40;;;;;;4927434;29;20955;-85
2023/12/20 11:06:46;;;;;;;2.30;1.70;;;22.20;52.40;;;;;;4925464;29;20441;-86
2023/12/20 11:09:23;;;;;;;2.00;1.90;;;22.20;52.80;;;;;;4925652;29;20463;-86
2023/12/20 11:12:00;;;;;;;2.10;1.77;;;22.20;52.60;;;;;;4924619;29;20459;-85
2023/12/20 11:14:34;;;;;;;2.20;2.00;;;22.20;52.50;;;;;;4930872;29;20460;-84
2023/12/20 11:17:09;;;;;;;1.73;1.63;;;22.20;52.50;;;;;;4923755;29;20486;-85
2023/12/20 11:19:39;;;;;;;2.50;2.20;;;22.30;52.40;;;;;;4932443;29;20506;-85
2023/12/20 11:22:10;;;;;;;1.67;1.57;;;22.30;52.40;;;;;;4925142;29;20575;-85
2023/12/20 11:24:46;;;;;;;1.67;1.57;;;22.50;52.30;;;;;;4925539;29;21248;-84
2023/12/20 11:27:15;;;;;;;1.60;1.50;;;22.60;52.20;;;;;;4919610;29;20996;-84
2023/12/20 11:29:53;;;;;;;2.03;1.87;;;22.80;51.80;;;;;;4926480;29;20441;-84
2023/12/20 11:32:30;;;;;;;1.33;1.23;;;22.90;51.60;;;;;;4930869;29;20551;-85
2023/12/20 11:35:00;;;;;;;1.50;1.40;;;23.10;51.40;;;;;;4929391;29;20481;-86
2023/12/20 11:37:37;;;;;;;1.60;1.50;;;23.20;51.60;;;;;;4928758;29;20465;-84
2023/12/20 11:40:09;;;;;;;1.67;1.57;;;23.30;51.50;;;;;;4927011;29;20449;-85
2023/12/20 11:42:39;;;;;;;1.50;1.40;;;23.40;51.40;;;;;;4924439;29;20477;-85
2023/12/20 11:45:10;;;;;;;1.37;1.27;;;23.50;51.30;;;;;;4929360;29;20533;-85
2023/12/20 11:47:39;;;;;;;1.90;1.80;;;23.60;50.90;;;;;;4927247;29;20939;-84
2023/12/20 11:50:08;;;;;;;1.93;1.30;;;23.60;50.70;;;;;;4929961;29;20469;-86
2023/12/20 11:52:39;;;;;;;2.07;1.93;;;23.70;50.80;;;;;;4923358;29;20476;-89
2023/12/20 11:55:07;;;;;;;1.93;1.73;;;23.70;50.70;;;;;;4910710;29;20467;-88
2023/12/20 11:57:37;;;;;;;3.27;2.07;;;23.70;50.60;;;;;;4923021;29;20862;-85
2023/12/20 12:00:08;;;;;;;1.40;1.30;;;23.80;50.70;;;;;;4931125;29;20540;-85
2023/12/20 12:02:39;;;;;;;2.20;2.00;;;23.80;50.70;;;;;;4923704;29;20482;-84
2023/12/20 12:05:09;;;;;;;1.87;1.77;;;23.90;50.40;;;;;;4929074;29;20470;-85
2023/12/20 12:07:38;;;;;;;1.70;1.60;;;23.90;50.30;;;;;;4925712;29;20471;-90
2023/12/20 12:10:09;;;;;;;1.50;1.40;;;24.00;50.40;;;;;;4924145;29;20485;-84
2023/12/20 12:12:47;;;;;;;1.90;1.80;;;23.90;50.60;;;;;;4931007;29;20470;-85
2023/12/20 12:15:16;;;;;;;1.60;1.50;;;23.80;50.70;;;;;;4935433;29;20454;-86
2023/12/20 12:17:45;;;;;;;2.40;1.60;;;23.60;51.00;;;;;;4933022;29;20488;-85
2023/12/20 12:20:14;;;;;;;1.70;1.60;;;23.50;51.00;;;;;;4931738;29;20454;-84
2023/12/20 12:22:47;;;;;;;1.07;0.97;;;23.40;51.10;;;;;;4931995;29;20480;-85
2023/12/20 12:25:16;;;;;;;1.70;1.60;;;23.40;51.20;;;;;;4927979;29;20499;-85
2023/12/20 12:27:45;;;;;;;1.50;1.20;;;23.40;51.40;;;;;;4931909;29;20525;-86
2023/12/20 12:30:18;;;;;;;2.50;1.43;;;23.30;51.10;;;;;;4926503;29;20476;-85
2023/12/20 12:32:47;;;;;;;2.70;1.50;;;23.30;51.00;;;;;;4934362;29;21205;-84
2023/12/20 12:35:16;;;;;;;2.70;1.37;;;23.10;50.80;;;;;;4935517;29;20464;-85
2023/12/20 12:37:47;;;;;;;2.50;1.27;;;23.10;51.00;;;;;;4932800;29;20896;-85
2023/12/20 12:40:18;;;;;;;1.87;1.70;;;23.00;51.20;;;;;;4934363;29;20446;-87
2023/12/20 12:42:47;;;;;;;1.93;1.80;;;23.10;51.50;;;;;;4918455;29;20531;-87
2023/12/20 12:45:16;;;;;;;1.40;1.30;;;23.10;51.50;;;;;;4926612;29;20460;-85
2023/12/20 12:47:46;;;;;;;1.40;1.30;;;23.20;51.30;;;;;;4929009;29;20469;-85
2023/12/20 12:50:15;;;;;;;1.70;1.60;;;23.30;51.50;;;;;;4933337;29;20591;-86
2023/12/20 12:52:44;;;;;;;1.30;1.20;;;23.40;51.60;;;;;;4931772;29;21119;-84
2023/12/20 12:55:14;;;;;;;1.67;1.47;;;23.50;51.50;;;;;;4916286;29;21382;-85
2023/12/20 12:57:43;;;;;;;1.53;1.30;;;23.60;51.10;;;;;;4927950;29;20457;-87